createdAt,value
2018-06-28T00:04:47.663Z,1.20
2018-06-28T00:09:50.758Z,1.20
2018-06-28T00:14:53.858Z,1.00
2018-06-28T00:19:56.974Z,1.40
2018-06-28T00:25:00.072Z,1.10
2018-06-28T00:30:03.239Z,1.23
2018-06-28T00:35:06.340Z,1.30
2018-06-28T00:40:09.469Z,0.90
2018-06-28T00:55:52.866Z,1.20
2018-06-28T01:00:55.958Z,1.10
2018-06-28T01:05:59.066Z,0.97
2018-06-28T01:11:02.152Z,0.90
2018-06-28T01:16:05.244Z,1.20
2018-06-28T01:21:08.364Z,1.27
2018-06-28T01:26:11.424Z,1.30
2018-06-28T01:31:14.487Z,1.30
2018-06-28T01:36:17.628Z,1.17
2018-06-28T01:41:20.737Z,1.00
2018-06-28T01:46:23.862Z,1.30
2018-06-28T01:51:26.932Z,1.10
2018-06-28T01:56:30.004Z,1.00
2018-06-28T02:01:33.144Z,1.20
2018-06-28T02:06:36.240Z,1.20
2018-06-28T02:11:39.355Z,1.20
2018-06-28T02:16:42.441Z,1.10
2018-06-28T02:21:45.504Z,1.07
2018-06-28T02:26:48.600Z,1.20
2018-06-28T02:31:51.683Z,1.23
2018-06-28T02:36:54.752Z,1.00
2018-06-28T02:41:57.842Z,1.27
2018-06-28T02:47:00.999Z,1.20
2018-06-28T02:52:04.072Z,1.10
2018-06-28T02:57:07.159Z,1.40
2018-06-28T03:02:10.252Z,1.30
2018-06-28T03:07:13.364Z,1.10
2018-06-28T03:12:16.449Z,1.40
2018-06-28T03:17:19.535Z,1.23
2018-06-28T03:22:22.596Z,1.30
2018-06-28T03:27:25.751Z,1.40
2018-06-28T03:32:28.865Z,1.30
2018-06-28T03:37:31.972Z,1.30
2018-06-28T03:42:35.074Z,1.37
2018-06-28T03:47:38.128Z,1.37
2018-06-28T03:52:41.258Z,1.40
2018-06-28T03:57:44.336Z,1.33
2018-06-28T04:02:47.419Z,1.37
2018-06-28T04:07:50.491Z,1.30
2018-06-28T04:12:53.559Z,1.60
2018-06-28T04:17:56.627Z,1.53
2018-06-28T04:22:59.708Z,1.47
2018-06-28T04:28:02.769Z,1.50
2018-06-28T04:33:05.839Z,1.50
2018-06-28T04:38:08.910Z,1.13
2018-06-28T04:43:11.991Z,1.50
2018-06-28T04:48:15.060Z,1.63
2018-06-28T04:53:18.147Z,1.40
2018-06-28T04:58:21.242Z,1.30
2018-06-28T05:03:24.367Z,1.30
2018-06-28T05:08:27.463Z,1.23
2018-06-28T05:13:30.541Z,1.40
2018-06-28T05:18:33.642Z,1.50
2018-06-28T05:23:36.736Z,1.30
2018-06-28T05:28:39.803Z,1.30
2018-06-28T05:33:43.014Z,1.30
2018-06-28T05:38:46.063Z,1.33
2018-06-28T05:43:49.172Z,1.43
2018-06-28T05:48:52.255Z,1.30
2018-06-28T05:53:55.312Z,1.50
2018-06-28T05:58:58.372Z,1.40
2018-06-28T06:04:01.559Z,1.70
2018-06-28T06:09:06.300Z,1.50
2018-06-28T06:14:09.388Z,1.40
2018-06-28T06:19:12.474Z,1.43
2018-06-28T06:24:15.576Z,1.33
2018-06-28T06:29:18.683Z,1.57
2018-06-28T06:34:21.763Z,1.70
2018-06-28T06:39:25.173Z,1.60
2018-06-28T06:44:28.272Z,1.77
2018-06-28T06:49:31.375Z,1.93
2018-06-28T06:54:34.446Z,1.80
2018-06-28T06:59:37.542Z,1.63
2018-06-28T07:04:40.620Z,1.90
2018-06-28T07:09:43.695Z,1.57
2018-06-28T07:14:46.809Z,1.60
2018-06-28T07:21:29.803Z,1.63
2018-06-28T07:26:32.909Z,1.90
2018-06-28T07:31:35.987Z,1.80
2018-06-28T07:36:39.080Z,1.73
2018-06-28T07:41:42.212Z,1.90
2018-06-28T07:46:45.355Z,1.73
2018-06-28T07:51:48.432Z,1.73
2018-06-28T07:56:51.520Z,1.80
2018-06-28T08:01:54.619Z,2.03
2018-06-28T08:06:58.548Z,1.70
2018-06-28T08:17:22.448Z,1.83
2018-06-28T08:22:25.555Z,1.60
2018-06-28T08:27:28.708Z,2.00
2018-06-28T08:32:31.801Z,1.50
2018-06-28T08:37:34.913Z,1.73
2018-06-28T08:42:38.113Z,1.90
2018-06-28T08:47:41.231Z,1.70
2018-06-28T08:52:44.337Z,1.70
2018-06-28T08:57:47.563Z,2.03
2018-06-28T09:02:50.681Z,1.70
2018-06-28T09:07:53.785Z,1.90
2018-06-28T09:12:57.528Z,1.80
2018-06-28T09:18:00.758Z,2.10
2018-06-28T09:23:03.962Z,1.70
2018-06-28T09:28:07.033Z,1.57
2018-06-28T09:33:10.169Z,1.83
2018-06-28T09:38:13.266Z,2.00
2018-06-28T09:43:16.451Z,1.73
2018-06-28T09:48:19.896Z,1.97
2018-06-28T09:53:23.186Z,1.90
2018-06-28T09:58:26.319Z,1.70
2018-06-28T10:03:30.297Z,1.80
2018-06-28T10:08:33.403Z,1.93
2018-06-28T10:13:36.540Z,1.80
2018-06-28T10:18:39.700Z,1.90
2018-06-28T10:23:42.833Z,2.00
2018-06-28T10:28:45.939Z,1.83
2018-06-28T10:33:49.061Z,2.17
2018-06-28T10:38:52.175Z,1.87
2018-06-28T10:43:55.339Z,2.00
2018-06-28T10:48:58.524Z,1.90
2018-06-28T10:54:01.695Z,1.55
2018-06-28T10:59:04.824Z,1.82
2018-06-28T11:04:07.999Z,1.85
2018-06-28T11:09:12.102Z,1.83
2018-06-28T11:14:15.266Z,1.80
2018-06-28T11:19:18.536Z,1.70
2018-06-28T11:24:21.731Z,1.80
2018-06-28T11:29:25.000Z,1.80
2018-06-28T11:34:28.199Z,1.63
2018-06-28T11:39:31.392Z,1.90
2018-06-28T11:44:34.571Z,1.90
2018-06-28T11:49:37.722Z,1.70
2018-06-28T11:54:40.893Z,1.65
2018-06-28T11:59:44.173Z,1.90
2018-06-28T12:04:47.877Z,1.87
2018-06-28T12:09:51.498Z,1.95
2018-06-28T12:14:54.643Z,2.10
2018-06-28T12:19:57.810Z,1.57
2018-06-28T12:25:00.971Z,1.65
2018-06-28T12:30:04.663Z,1.70
2018-06-28T12:35:07.836Z,1.70
2018-06-28T12:40:11.116Z,1.40
2018-06-28T12:45:15.940Z,1.90
2018-06-28T12:50:19.097Z,1.90
2018-06-28T12:55:22.745Z,1.55
2018-06-28T13:00:25.984Z,1.52
2018-06-28T13:05:29.179Z,1.50
2018-06-28T13:10:32.422Z,1.62
2018-06-28T13:15:35.632Z,1.67
2018-06-28T13:20:38.813Z,1.50
2018-06-28T13:25:42.005Z,1.50
2018-06-28T13:30:45.190Z,1.67
2018-06-28T13:35:48.467Z,1.75
2018-06-28T13:40:51.807Z,1.77
2018-06-28T13:45:54.904Z,1.70
2018-06-28T13:50:58.224Z,1.50
2018-06-28T13:56:01.588Z,1.82
2018-06-28T14:01:04.867Z,1.85
2018-06-28T14:06:08.144Z,1.40
2018-06-28T14:11:11.488Z,1.85
2018-06-28T14:16:14.829Z,1.67
2018-06-28T14:21:18.139Z,1.55
2018-06-28T14:26:21.431Z,1.70
2018-06-28T14:31:24.692Z,1.62
2018-06-28T14:36:28.014Z,1.87
2018-06-28T14:41:31.386Z,1.80
2018-06-28T14:46:37.765Z,1.70
2018-06-28T14:51:41.036Z,1.70
2018-06-28T14:56:44.598Z,1.80
2018-06-28T15:01:47.951Z,1.70
2018-06-28T15:06:54.411Z,1.67
2018-06-28T15:11:57.704Z,1.42
2018-06-28T15:17:01.073Z,1.60
2018-06-28T15:22:04.573Z,1.87
2018-06-28T15:27:07.943Z,1.70
2018-06-28T15:32:14.561Z,1.50
2018-06-28T15:37:17.933Z,1.42
2018-06-28T15:42:24.585Z,1.90
2018-06-28T15:47:42.229Z,1.80
2018-06-28T15:52:45.622Z,1.30
2018-06-28T15:57:49.015Z,1.85
2018-06-28T16:02:52.288Z,1.67
2018-06-28T16:07:56.652Z,1.60
2018-06-28T16:12:59.997Z,1.80
2018-06-28T16:18:03.349Z,1.70
2018-06-28T16:23:06.609Z,1.60
2018-06-28T16:28:09.908Z,1.70
2018-06-28T16:33:13.195Z,1.70
2018-06-28T16:38:17.260Z,1.70
2018-06-28T16:43:21.049Z,1.60
2018-06-28T16:48:24.370Z,1.50
2018-06-28T16:53:27.652Z,1.90
2018-06-28T16:58:30.952Z,1.70
2018-06-28T17:03:34.257Z,1.70
2018-06-28T17:08:37.551Z,2.50
2018-06-28T17:13:40.860Z,1.90
2018-06-28T17:18:44.529Z,1.80
2018-06-28T17:23:47.992Z,1.60
2018-06-28T17:28:51.236Z,1.90
2018-06-28T17:33:54.523Z,1.60
2018-06-28T17:38:58.208Z,1.93
2018-06-28T17:44:01.423Z,1.70
2018-06-28T17:49:04.735Z,1.80
2018-06-28T17:54:07.935Z,1.50
2018-06-28T17:59:11.124Z,1.53
2018-06-28T18:04:14.368Z,1.70
2018-06-28T18:09:17.534Z,1.80
2018-06-28T18:14:20.722Z,1.73
2018-06-28T18:19:23.887Z,1.80
2018-06-28T18:24:27.067Z,1.63
2018-06-28T18:29:30.418Z,1.60
2018-06-28T18:34:33.632Z,1.80
2018-06-28T18:39:36.824Z,1.80
2018-06-28T18:44:40.016Z,1.57
2018-06-28T18:49:43.294Z,1.60
2018-06-28T18:54:48.678Z,1.60
2018-06-28T18:59:52.038Z,1.60
2018-06-28T19:04:55.215Z,1.60
2018-06-28T19:10:03.893Z,1.67
2018-06-28T19:15:12.693Z,1.80
2018-06-28T19:20:16.146Z,1.70
2018-06-28T19:25:19.524Z,1.70
2018-06-28T19:31:26.580Z,1.40
2018-06-28T19:36:30.782Z,1.70
2018-06-28T19:41:39.400Z,1.47
2018-06-28T19:46:42.999Z,1.63
2018-06-28T19:51:51.832Z,1.80
2018-06-28T19:56:57.260Z,1.80
2018-06-28T20:02:06.170Z,1.63
2018-06-28T20:07:10.236Z,1.50
2018-06-28T20:12:22.372Z,1.70
2018-06-28T20:17:32.427Z,1.77
2018-06-28T20:22:36.218Z,1.80
2018-06-28T20:27:44.740Z,1.60
2018-06-28T20:32:53.852Z,1.60
2018-06-28T20:37:57.272Z,1.70
2018-06-28T20:43:00.444Z,1.70
2018-06-28T20:48:03.696Z,1.57
2018-06-28T20:53:06.907Z,1.70
2018-06-28T20:58:10.138Z,1.67
2018-06-28T21:03:13.295Z,1.70
2018-06-28T21:08:16.530Z,2.13
2018-06-28T21:13:19.662Z,1.77
2018-06-28T21:18:22.831Z,1.80
2018-06-28T21:23:25.956Z,1.60
2018-06-28T21:28:29.072Z,1.67
2018-06-28T21:33:32.299Z,2.03
2018-06-28T21:38:35.418Z,1.57
2018-06-28T21:43:39.824Z,1.80
2018-06-28T21:48:43.006Z,1.40
2018-06-28T21:53:46.138Z,1.80
2018-06-28T21:58:49.324Z,1.67
2018-06-28T22:03:52.488Z,1.60
2018-06-28T22:08:55.662Z,1.60
2018-06-28T22:13:58.765Z,1.60
2018-06-28T22:19:01.951Z,1.70
2018-06-28T22:24:05.278Z,1.43
2018-06-28T22:29:08.485Z,1.50
2018-06-28T22:34:11.724Z,1.60
2018-06-28T22:39:14.853Z,1.60
2018-06-28T22:44:17.975Z,1.80
2018-06-28T22:49:21.089Z,1.60
2018-06-28T22:54:24.233Z,1.57
2018-06-28T22:59:27.344Z,1.50
2018-06-28T23:04:30.481Z,1.27
2018-06-28T23:09:33.612Z,1.50
2018-06-28T23:14:36.770Z,1.37
2018-06-28T23:19:39.890Z,1.43
2018-06-28T23:24:42.975Z,1.57
2018-06-28T23:29:46.513Z,1.40
2018-06-28T23:34:49.626Z,1.63
2018-06-28T23:39:52.727Z,1.57
2018-06-28T23:50:22.447Z,1.47
2018-06-28T23:55:25.600Z,1.60
